Time;durP1;ratioP1;P1;durP2;ratioP2;P2;SDS_P1;SDS_P2;PMS_P1;PMS_P2;Temp;Humidity;BMP_temperature;BMP_pressure;BME280_temperature;BME280_humidity;BME280_pressure;Samples;Min_cycle;Max_cycle;Signal;HPM_P1;HPM_P2
2023/09/09 00:01:59;;;;;;;6.18;4.60;;;;;;;;;;5088666;28;20233;-66
2023/09/09 00:04:25;;;;;;;9.05;5.80;;;;;;;;;;5090872;28;20306;-65
2023/09/09 00:06:51;;;;;;;4.90;4.50;;;;;;;;;;5087995;28;20669;-65
2023/09/09 00:09:18;;;;;;;6.28;5.30;;;;;;;;;;5088528;28;20197;-66
2023/09/09 00:11:46;;;;;;;7.25;5.03;;;;;;;;;;5084911;28;20250;-65
2023/09/09 00:14:12;;;;;;;5.18;4.68;;;;;;;;;;5087561;28;20346;-65
2023/09/09 00:16:38;;;;;;;13.30;5.55;;;;;;;;;;5089883;28;20236;-65
2023/09/09 00:19:05;;;;;;;5.80;5.30;;;;;;;;;;5089659;28;20205;-64
2023/09/09 00:21:32;;;;;;;10.55;6.47;;;;;;;;;;5096362;28;20226;-66
2023/09/09 00:23:58;;;;;;;7.47;5.35;;;;;;;;;;5087171;28;20224;-65
2023/09/09 00:26:27;;;;;;;7.18;4.97;;;;;;;;;;5091535;28;20205;-66
2023/09/09 00:28:55;;;;;;;6.35;4.70;;;;;;;;;;5091663;28;20305;-65
2023/09/09 00:31:22;;;;;;;5.68;5.25;;;;;;;;;;5094436;28;20556;-65
2023/09/09 00:33:48;;;;;;;5.60;5.10;;;;;;;;;;5100137;28;20228;-65
2023/09/09 00:36:15;;;;;;;6.13;5.03;;;;;;;;;;5094448;28;20205;-64
2023/09/09 00:38:41;;;;;;;5.88;5.40;;;;;;;;;;5092511;28;20308;-65
2023/09/09 00:41:12;;;;;;;10.52;4.82;;;;;;;;;;5094192;28;20197;-64
2023/09/09 00:43:39;;;;;;;6.78;5.82;;;;;;;;;;5089744;28;20704;-64
2023/09/09 00:46:07;;;;;;;7.38;5.32;;;;;;;;;;5097013;28;20201;-65
2023/09/09 00:48:33;;;;;;;5.25;4.78;;;;;;;;;;5090982;28;20240;-65
2023/09/09 00:51:00;;;;;;;6.32;5.68;;;;;;;;;;5092201;28;20201;-66
2023/09/09 00:53:26;;;;;;;5.60;5.07;;;;;;;;;;5093540;28;20316;-65
2023/09/09 00:55:53;;;;;;;8.98;5.05;;;;;;;;;;5097729;28;20229;-65
2023/09/09 00:58:20;;;;;;;5.13;4.63;;;;;;;;;;5093321;28;20201;-65
2023/09/09 01:00:46;;;;;;;5.45;5.03;;;;;;;;;;5093197;28;20205;-65
2023/09/09 01:03:14;;;;;;;6.43;6.00;;;;;;;;;;5092332;28;20249;-65
2023/09/09 01:05:40;;;;;;;5.60;5.13;;;;;;;;;;5094904;28;20274;-65
2023/09/09 01:08:07;;;;;;;5.78;5.38;;;;;;;;;;5090595;28;20229;-66
2023/09/09 01:10:33;;;;;;;6.68;6.07;;;;;;;;;;5094703;28;20780;-65
2023/09/09 01:13:00;;;;;;;8.23;5.25;;;;;;;;;;5091672;28;20236;-65
2023/09/09 01:15:26;;;;;;;8.07;5.53;;;;;;;;;;5094166;28;20751;-66
2023/09/09 01:17:53;;;;;;;7.15;5.95;;;;;;;;;;5091439;28;20251;-66
2023/09/09 01:20:21;;;;;;;6.18;5.65;;;;;;;;;;5090356;28;20282;-65
2023/09/09 01:22:49;;;;;;;8.93;5.22;;;;;;;;;;5093331;28;20264;-65
2023/09/09 01:25:16;;;;;;;7.03;5.55;;;;;;;;;;5094482;28;20217;-65
2023/09/09 01:27:43;;;;;;;6.22;5.05;;;;;;;;;;5092325;28;21246;-65
2023/09/09 01:30:11;;;;;;;4.97;4.60;;;;;;;;;;5095243;28;20251;-65
2023/09/09 01:32:37;;;;;;;5.40;5.00;;;;;;;;;;5090850;28;20206;-66
2023/09/09 01:35:04;;;;;;;7.60;5.00;;;;;;;;;;5090041;28;20333;-64
2023/09/09 01:37:31;;;;;;;5.78;5.00;;;;;;;;;;5091006;28;20204;-67
2023/09/09 01:40:04;;;;;;;8.48;5.45;;;;;;;;;;5093099;28;20202;-64
2023/09/09 01:42:30;;;;;;;5.65;5.15;;;;;;;;;;5096260;28;20202;-66
2023/09/09 01:44:57;;;;;;;5.25;4.75;;;;;;;;;;5092006;28;20647;-65
2023/09/09 01:47:23;;;;;;;5.15;4.55;;;;;;;;;;5089301;28;20636;-65
2023/09/09 01:49:50;;;;;;;9.02;4.80;;;;;;;;;;5091816;28;20266;-65
2023/09/09 01:52:16;;;;;;;5.75;5.20;;;;;;;;;;5092903;28;20276;-65
2023/09/09 01:54:43;;;;;;;8.35;4.78;;;;;;;;;;5093510;28;20230;-64
2023/09/09 01:57:10;;;;;;;6.28;5.53;;;;;;;;;;5091736;28;20289;-65
2023/09/09 01:59:37;;;;;;;7.03;5.53;;;;;;;;;;5092688;28;20232;-64
2023/09/09 02:02:04;;;;;;;4.82;4.38;;;;;;;;;;5094770;28;20255;-64
2023/09/09 02:04:30;;;;;;;9.13;5.43;;;;;;;;;;5094637;28;20193;-66
2023/09/09 02:06:57;;;;;;;7.38;5.32;;;;;;;;;;5090876;28;20213;-65
2023/09/09 02:09:23;;;;;;;6.75;5.65;;;;;;;;;;5094749;28;20673;-65
2023/09/09 02:11:49;;;;;;;7.05;5.57;;;;;;;;;;5095343;27;20643;-66
2023/09/09 02:14:17;;;;;;;6.32;5.07;;;;;;;;;;5092733;28;20221;-65
2023/09/09 02:16:44;;;;;;;6.18;5.57;;;;;;;;;;5089685;28;20244;-66
2023/09/09 02:19:10;;;;;;;6.65;5.03;;;;;;;;;;5089538;28;20209;-65
2023/09/09 02:21:36;;;;;;;10.98;5.90;;;;;;;;;;5092174;28;20233;-65
2023/09/09 02:24:03;;;;;;;8.02;5.47;;;;;;;;;;5091127;28;20202;-65
2023/09/09 02:26:30;;;;;;;8.95;5.50;;;;;;;;;;5095645;28;20201;-65
2023/09/09 02:28:56;;;;;;;5.97;5.18;;;;;;;;;;5091705;28;20202;-66
2023/09/09 02:31:24;;;;;;;8.55;5.07;;;;;;;;;;5089738;28;20200;-65
2023/09/09 02:33:50;;;;;;;7.05;5.63;;;;;;;;;;5097303;28;20253;-67
2023/09/09 02:36:17;;;;;;;8.63;5.47;;;;;;;;;;5095315;28;20654;-65
2023/09/09 02:38:43;;;;;;;5.35;4.95;;;;;;;;;;5097062;28;20205;-66
2023/09/09 02:41:10;;;;;;;5.75;5.07;;;;;;;;;;5090878;28;20263;-66
2023/09/09 02:43:37;;;;;;;5.50;5.10;;;;;;;;;;5093929;28;20221;-66
2023/09/09 02:46:04;;;;;;;5.97;5.18;;;;;;;;;;5095114;28;20259;-66
2023/09/09 02:48:32;;;;;;;6.13;5.40;;;;;;;;;;5089234;28;20237;-65
2023/09/09 02:50:58;;;;;;;5.95;5.28;;;;;;;;;;5094089;28;20657;-66
2023/09/09 02:53:24;;;;;;;5.72;5.25;;;;;;;;;;5094010;28;20252;-66
2023/09/09 02:55:51;;;;;;;5.65;4.95;;;;;;;;;;5090039;28;20229;-66
2023/09/09 02:58:17;;;;;;;12.25;4.90;;;;;;;;;;5091876;28;20233;-65
2023/09/09 03:00:44;;;;;;;7.80;5.75;;;;;;;;;;5087615;28;20205;-66
2023/09/09 03:03:10;;;;;;;6.15;5.60;;;;;;;;;;5090730;28;20846;-66
2023/09/09 03:05:38;;;;;;;7.75;5.57;;;;;;;;;;5093882;28;20197;-66
2023/09/09 03:08:05;;;;;;;6.63;5.53;;;;;;;;;;5093265;28;20251;-65
2023/09/09 03:10:32;;;;;;;6.63;5.97;;;;;;;;;;5090844;28;20296;-66
2023/09/09 03:12:59;;;;;;;6.63;5.82;;;;;;;;;;5090306;28;20210;-66
2023/09/09 03:15:25;;;;;;;8.40;5.63;;;;;;;;;;5092332;28;20770;-65
2023/09/09 03:17:52;;;;;;;6.15;5.45;;;;;;;;;;5090855;28;20656;-65
2023/09/09 03:20:18;;;;;;;6.50;6.00;;;;;;;;;;5090119;28;20210;-65
2023/09/09 03:22:46;;;;;;;7.88;5.90;;;;;;;;;;5092165;28;20194;-65
2023/09/09 03:25:13;;;;;;;6.13;5.13;;;;;;;;;;5087368;28;20223;-65
2023/09/09 03:27:39;;;;;;;8.13;6.28;;;;;;;;;;5092115;28;20229;-65
2023/09/09 03:30:06;;;;;;;6.10;5.70;;;;;;;;;;5089781;28;20259;-66
2023/09/09 03:32:32;;;;;;;8.80;5.45;;;;;;;;;;5091503;28;20254;-65
2023/09/09 03:34:59;;;;;;;10.18;5.53;;;;;;;;;;5090979;28;20251;-66
2023/09/09 03:37:26;;;;;;;7.10;5.85;;;;;;;;;;5090368;28;20216;-65
2023/09/09 03:39:53;;;;;;;6.57;6.07;;;;;;;;;;5089272;28;20270;-65
2023/09/09 03:42:20;;;;;;;7.57;5.95;;;;;;;;;;5091439;28;20235;-65
2023/09/09 03:44:46;;;;;;;10.27;7.50;;;;;;;;;;5090698;28;20205;-65
2023/09/09 03:47:13;;;;;;;6.57;5.95;;;;;;;;;;5088390;28;20750;-66
2023/09/09 03:49:39;;;;;;;6.63;6.03;;;;;;;;;;5090800;28;20248;-65
2023/09/09 03:52:06;;;;;;;7.65;6.70;;;;;;;;;;5089596;28;20675;-66
2023/09/09 03:54:32;;;;;;;9.82;6.47;;;;;;;;;;5090772;28;20225;-66
2023/09/09 03:56:59;;;;;;;6.95;6.25;;;;;;;;;;5092951;28;20645;-66
2023/09/09 03:59:29;;;;;;;9.18;6.65;;;;;;;;;;5092351;28;20232;-66
2023/09/09 04:01:55;;;;;;;7.57;6.30;;;;;;;;;;5088803;28;20197;-67
2023/09/09 04:04:22;;;;;;;7.72;6.13;;;;;;;;;;5087656;28;20198;-65
2023/09/09 04:06:48;;;;;;;14.35;6.50;;;;;;;;;;5091262;28;20228;-66
2023/09/09 04:09:22;;;;;;;7.07;6.15;;;;;;;;;;5091390;28;20290;-65
2023/09/09 04:11:48;;;;;;;7.32;6.63;;;;;;;;;;5090839;28;20240;-65
2023/09/09 04:14:16;;;;;;;8.25;6.40;;;;;;;;;;5089933;28;20225;-65
2023/09/09 04:16:43;;;;;;;10.20;7.30;;;;;;;;;;5086978;28;20293;-64
2023/09/09 04:19:09;;;;;;;6.90;6.10;;;;;;;;;;5087821;28;21324;-66
2023/09/09 04:21:36;;;;;;;7.22;6.53;;;;;;;;;;5090820;28;20217;-66
2023/09/09 04:24:02;;;;;;;7.85;7.15;;;;;;;;;;5086170;28;20233;-65
2023/09/09 04:26:29;;;;;;;8.80;7.32;;;;;;;;;;5088537;28;20205;-66
2023/09/09 04:28:55;;;;;;;11.10;7.80;;;;;;;;;;5092605;28;20201;-66
2023/09/09 04:31:23;;;;;;;7.80;7.03;;;;;;;;;;5093976;28;20198;-66
2023/09/09 04:33:49;;;;;;;7.88;7.05;;;;;;;;;;5091898;28;20295;-65
2023/09/09 04:36:16;;;;;;;10.90;6.60;;;;;;;;;;5087562;28;20299;-66
2023/09/09 04:38:42;;;;;;;7.47;6.85;;;;;;;;;;5090000;28;20309;-65
2023/09/09 04:41:09;;;;;;;8.57;7.10;;;;;;;;;;5091112;28;20197;-66
2023/09/09 04:43:35;;;;;;;9.73;6.88;;;;;;;;;;5088542;28;20217;-66
2023/09/09 04:46:01;;;;;;;11.40;7.20;;;;;;;;;;5089852;28;20206;-66
2023/09/09 04:48:29;;;;;;;7.93;6.63;;;;;;;;;;5087026;28;20250;-66
2023/09/09 04:50:56;;;;;;;14.45;6.68;;;;;;;;;;5090016;28;20228;-66
2023/09/09 04:53:22;;;;;;;10.60;6.40;;;;;;;;;;5088430;28;20236;-66
2023/09/09 04:55:49;;;;;;;8.95;6.10;;;;;;;;;;5086563;28;20253;-66
2023/09/09 04:58:15;;;;;;;9.63;6.03;;;;;;;;;;5089499;28;20252;-67
2023/09/09 05:00:42;;;;;;;6.25;5.68;;;;;;;;;;5089436;28;20266;-66
2023/09/09 05:03:08;;;;;;;8.60;6.15;;;;;;;;;;5090427;28;20224;-66
2023/09/09 05:05:36;;;;;;;6.20;5.70;;;;;;;;;;5088889;28;20255;-66
2023/09/09 05:08:03;;;;;;;11.80;6.22;;;;;;;;;;5091416;28;20741;-67
2023/09/09 05:10:31;;;;;;;8.18;5.15;;;;;;;;;;5086827;28;20351;-65
2023/09/09 05:12:58;;;;;;;7.13;5.70;;;;;;;;;;5091213;28;20233;-65
2023/09/09 05:15:24;;;;;;;5.95;5.45;;;;;;;;;;5095354;28;20713;-68
2023/09/09 05:17:51;;;;;;;7.05;5.32;;;;;;;;;;5092642;28;20209;-67
2023/09/09 05:20:17;;;;;;;6.20;5.70;;;;;;;;;;5092817;28;20254;-67
2023/09/09 05:22:45;;;;;;;5.63;5.20;;;;;;;;;;5092359;28;20659;-67
2023/09/09 05:25:12;;;;;;;7.72;5.55;;;;;;;;;;5092245;28;20197;-67
2023/09/09 05:27:38;;;;;;;12.32;5.95;;;;;;;;;;5090567;28;20236;-67
2023/09/09 05:30:05;;;;;;;6.72;6.10;;;;;;;;;;5095108;28;20212;-67
2023/09/09 05:32:31;;;;;;;8.40;6.68;;;;;;;;;;5093640;28;20666;-67
2023/09/09 05:34:58;;;;;;;10.07;7.10;;;;;;;;;;5075572;28;20619;-66
2023/09/09 05:37:26;;;;;;;6.30;5.90;;;;;;;;;;5093186;28;20201;-66
2023/09/09 05:39:54;;;;;;;13.50;8.70;;;;;;;;;;5089307;28;20690;-66
2023/09/09 05:42:20;;;;;;;9.75;7.38;;;;;;;;;;5092126;28;20690;-67
2023/09/09 05:44:47;;;;;;;18.23;8.90;;;;;;;;;;5092459;28;20198;-66
2023/09/09 05:47:13;;;;;;;9.27;8.38;;;;;;;;;;5090185;28;20222;-67
2023/09/09 05:49:40;;;;;;;10.90;8.05;;;;;;;;;;5095619;28;20205;-67
2023/09/09 05:52:07;;;;;;;9.18;8.27;;;;;;;;;;5092568;27;20700;-66
2023/09/09 05:54:33;;;;;;;12.38;8.88;;;;;;;;;;5095155;28;20204;-66
2023/09/09 05:57:01;;;;;;;8.80;8.02;;;;;;;;;;5092024;28;20683;-67
2023/09/09 05:59:28;;;;;;;8.23;7.53;;;;;;;;;;5092838;28;20641;-67
2023/09/09 06:01:54;;;;;;;9.05;6.78;;;;;;;;;;5091502;28;20198;-67
2023/09/09 06:04:21;;;;;;;10.88;6.85;;;;;;;;;;5091856;28;20266;-67
2023/09/09 06:06:47;;;;;;;14.80;5.93;;;;;;;;;;5093288;28;20251;-66
2023/09/09 06:09:14;;;;;;;18.85;7.57;;;;;;;;;;5092967;28;20197;-67
2023/09/09 06:11:41;;;;;;;8.57;6.20;;;;;;;;;;5090915;28;20201;-67
2023/09/09 06:14:09;;;;;;;15.00;6.53;;;;;;;;;;5087626;28;20251;-67
2023/09/09 06:16:35;;;;;;;9.68;6.47;;;;;;;;;;5091797;27;20229;-67
2023/09/09 06:19:01;;;;;;;5.43;4.78;;;;;;;;;;5092297;28;20276;-67
2023/09/09 06:21:28;;;;;;;9.95;6.47;;;;;;;;;;5096073;28;20208;-67
2023/09/09 06:23:55;;;;;;;6.10;5.60;;;;;;;;;;5091567;28;20643;-67
2023/09/09 06:26:21;;;;;;;9.65;5.30;;;;;;;;;;5095711;28;20671;-67
2023/09/09 06:28:48;;;;;;;5.95;5.45;;;;;;;;;;5091068;28;20224;-67
2023/09/09 06:31:15;;;;;;;9.00;5.30;;;;;;;;;;5093644;28;20288;-66
2023/09/09 06:33:42;;;;;;;11.70;5.45;;;;;;;;;;5093448;28;20310;-67
2023/09/09 06:36:08;;;;;;;4.80;4.40;;;;;;;;;;5091808;28;20796;-68
2023/09/09 06:38:35;;;;;;;5.95;4.95;;;;;;;;;;5093983;28;20293;-68
2023/09/09 06:41:01;;;;;;;7.57;5.90;;;;;;;;;;5090561;28;20236;-68
2023/09/09 06:43:27;;;;;;;10.98;5.30;;;;;;;;;;5092803;28;20209;-67
2023/09/09 06:45:54;;;;;;;6.30;5.65;;;;;;;;;;5090714;28;20632;-68
2023/09/09 06:48:22;;;;;;;8.13;6.43;;;;;;;;;;5090239;28;20197;-68
2023/09/09 06:50:48;;;;;;;13.80;5.45;;;;;;;;;;5094929;28;20237;-68
2023/09/09 06:53:15;;;;;;;5.85;5.32;;;;;;;;;;5094777;28;20221;-67
2023/09/09 06:55:42;;;;;;;7.95;4.78;;;;;;;;;;5088375;28;20710;-66
2023/09/09 06:58:08;;;;;;;7.97;4.82;;;;;;;;;;5089203;28;20198;-66
2023/09/09 07:00:35;;;;;;;5.75;5.10;;;;;;;;;;5088794;28;20710;-66
2023/09/09 07:03:01;;;;;;;6.25;5.65;;;;;;;;;;5097728;28;20197;-66
2023/09/09 07:05:31;;;;;;;5.70;5.35;;;;;;;;;;5096335;28;20198;-66
2023/09/09 07:07:57;;;;;;;5.82;5.43;;;;;;;;;;5089901;28;20245;-67
2023/09/09 07:10:24;;;;;;;14.10;5.95;;;;;;;;;;5088961;28;20224;-67
2023/09/09 07:12:51;;;;;;;10.75;5.35;;;;;;;40.87;nan;95477.41;5087810;27;20197;-66
2023/09/09 07:15:18;;;;;;;6.40;5.90;;;;;;;41.75;nan;95481.84;5094089;27;20678;-66
2023/09/09 07:17:46;;;;;;;6.35;5.85;;;;;;;42.41;nan;95483.16;5089965;28;20641;-67
2023/09/09 07:20:13;;;;;;;13.07;6.03;;;;;;;43.39;nan;95476.50;5090614;27;20194;-68
2023/09/09 07:22:40;;;;;;;6.97;5.50;;;;;;;;;;5096462;28;20263;-66
2023/09/09 07:25:07;;;;;;;9.73;5.47;;;;;;;;;;5090748;28;20255;-67
2023/09/09 07:27:34;;;;;;;6.63;5.00;;;;;;;;;;5088491;28;20244;-67
2023/09/09 07:30:00;;;;;;;11.15;5.53;;;;;;;;;;5092097;28;20226;-68
2023/09/09 07:32:27;;;;;;;7.22;5.30;;;;;;;;;;5088267;28;20319;-67
2023/09/09 07:34:53;;;;;;;7.75;4.97;;;;;;;;;;5089399;28;20272;-66
2023/09/09 07:37:20;;;;;;;11.00;4.10;;;;;;;42.45;nan;95495.00;5091440;28;20233;-66
2023/09/09 07:39:50;;;;;;;6.07;3.97;;;;;;;;;;5090386;28;20233;-67
2023/09/09 07:42:16;;;;;;;8.70;3.72;;;;;;;;;;5088598;28;20259;-66
2023/09/09 07:44:43;;;;;;;5.55;4.32;;;;;;;38.98;nan;95491.66;5089824;28;20265;-67
2023/09/09 07:47:10;;;;;;;4.40;3.30;;;;;;;;;;5091687;28;20731;-67
2023/09/09 07:49:37;;;;;;;10.07;3.55;;;;;;;;;;5090133;28;20262;-66
2023/09/09 07:52:04;;;;;;;3.55;3.35;;;;;;;;;;5090850;28;20678;-67
2023/09/09 07:54:30;;;;;;;5.20;3.00;;;;;;;39.44;nan;95487.78;5090810;28;20634;-65
2023/09/09 07:56:59;;;;;;;7.22;3.60;;;;;;;;;;5088577;28;20313;-66
2023/09/09 07:59:26;;;;;;;4.50;4.20;;;;;;;;;;5090576;28;20197;-65
2023/09/09 08:01:53;;;;;;;5.80;3.53;;;;;;;39.15;nan;95480.50;5091086;28;20683;-67
2023/09/09 08:04:20;;;;;;;7.57;3.40;;;;;;;;;;5092282;28;20205;-66
2023/09/09 08:06:46;;;;;;;5.32;3.60;;;;;;;39.57;nan;95477.06;5094938;28;20231;-66
2023/09/09 08:09:13;;;;;;;5.10;4.70;;;;;;;;;;5089816;28;20213;-66
2023/09/09 08:11:39;;;;;;;4.10;3.08;;;;;;;;;;5088728;28;20270;-65
2023/09/09 08:14:07;;;;;;;4.18;3.08;;;;;;;38.60;nan;95475.03;5088481;28;20194;-65
2023/09/09 08:16:34;;;;;;;6.03;4.15;;;;;;;;;;5089043;28;20270;-67
2023/09/09 08:19:00;;;;;;;10.40;3.42;;;;;;;41.95;nan;95474.25;5087119;28;20676;-66
2023/09/09 08:21:27;;;;;;;3.28;2.85;;;;;;;41.85;nan;95473.22;5092054;28;20731;-67
2023/09/09 08:23:54;;;;;;;3.95;3.60;;;;;;;;;;5088899;28;20197;-66
2023/09/09 08:26:21;;;;;;;2.95;2.75;;;;;;;39.73;nan;95471.13;5087942;28;20298;-67
2023/09/09 08:28:47;;;;;;;4.85;3.30;;;;;;;40.19;nan;95463.63;5089209;28;20670;-67
2023/09/09 08:31:15;;;;;;;4.97;3.08;;;;;;;40.24;nan;95467.25;5091040;28;20252;-66
2023/09/09 08:33:42;;;;;;;3.20;2.70;;;;;;;41.69;nan;95458.75;5088221;28;20642;-66
2023/09/09 08:36:08;;;;;;;3.28;2.85;;;;;;;;;;5087629;28;20698;-65
2023/09/09 08:38:35;;;;;;;3.63;2.88;;;;;;;41.83;nan;95465.44;5085142;28;20631;-66
2023/09/09 08:41:06;;;;;;;3.55;3.35;;;;;;;39.91;nan;95453.53;5088528;28;20205;-66
2023/09/09 08:43:42;;;;;;;3.13;2.90;;;;;;;36.86;nan;95456.38;5088312;28;20205;-65
2023/09/09 08:46:12;;;;;;;2.72;2.50;;;;;;;;;;5089523;28;20270;-66
2023/09/09 08:48:41;;;;;;;3.13;2.67;;;;;;;;;;5095356;28;20201;-65
2023/09/09 08:51:09;;;;;;;2.65;2.30;;;;;;;;;;5097523;28;20266;-66
2023/09/09 08:53:36;;;;;;;4.80;2.80;;;;;;;;;;5098713;28;20232;-66
2023/09/09 08:56:03;;;;;;;2.90;2.65;;;;;;;;;;5088439;28;20218;-64
2023/09/09 08:58:29;;;;;;;12.25;10.98;;;;;;;;;;5095132;28;20217;-67
2023/09/09 09:00:56;;;;;;;4.45;4.15;;;;;;;;;;5092152;28;20748;-65
2023/09/09 09:03:23;;;;;;;7.70;2.78;;;;;;;;;;5093850;28;20209;-65
2023/09/09 09:05:51;;;;;;;3.03;2.72;;;;;;;;;;5099410;28;20254;-64
2023/09/09 09:08:18;;;;;;;5.15;3.30;;;;;;;;;;5092482;28;20260;-66
2023/09/09 09:10:47;;;;;;;3.45;3.15;;;;;;;;;;5092567;28;20233;-66
2023/09/09 09:13:13;;;;;;;6.18;3.25;;;;;;;32.00;nan;95423.22;5099509;28;20208;-64
2023/09/09 09:15:40;;;;;;;3.42;3.15;;;;;;;;;;5094270;28;20193;-64
2023/09/09 09:18:08;;;;;;;4.20;3.30;;;;;;;;;;5096078;28;20201;-66
2023/09/09 09:20:36;;;;;;;5.22;2.42;;;;;;;;;;5095496;28;20333;-65
2023/09/09 09:23:05;;;;;;;3.25;2.05;;;;;;;;;;5092587;28;20201;-64
2023/09/09 09:25:36;;;;;;;1.80;1.70;;;;;;;;;;5097099;28;20210;-64
2023/09/09 09:28:03;;;;;;;2.72;1.95;;;;;;;;;;5090078;28;20647;-63
2023/09/09 09:30:29;;;;;;;2.15;2.05;;;;;;;;;;5089182;28;20570;-64
2023/09/09 09:32:56;;;;;;;3.58;2.13;;;;;;;;;;5088522;28;20205;-65
2023/09/09 09:35:24;;;;;;;4.60;2.80;;;;;;;;;;5091578;28;20225;-65
2023/09/09 09:37:51;;;;;;;2.25;2.15;;;;;;;;;;5092704;28;20222;-66
2023/09/09 09:40:19;;;;;;;2.05;1.75;;;;;;;;;;5089505;28;20582;-65
2023/09/09 09:42:46;;;;;;;10.15;7.47;;;;;;;;;;5091473;28;20261;-66
2023/09/09 09:45:13;;;;;;;2.88;2.05;;;;;;;;;;5090074;28;20201;-64
2023/09/09 09:47:43;;;;;;;3.05;2.83;;;;;;;;;;5092582;28;20201;-63
2023/09/09 09:50:16;;;;;;;11.90;8.85;;;;;;;;;;5099674;28;20209;-63
2023/09/09 09:52:47;;;;;;;2.80;2.28;;;;;;;;;;5092812;28;20225;-64
2023/09/09 09:55:16;;;;;;;4.30;1.98;;;;;;;;;;5089154;28;20206;-65
2023/09/09 09:57:45;;;;;;;4.43;3.65;;;;;;;;;;5088742;27;20312;-65
2023/09/09 10:00:12;;;;;;;2.53;2.33;;;;;;;;;;5088787;28;20261;-64
2023/09/09 10:02:41;;;;;;;3.70;3.35;;;;;;;;;;5091057;28;20289;-64
2023/09/09 10:05:08;;;;;;;3.10;2.80;;;;;;;;;;5089301;28;20300;-64
2023/09/09 10:07:36;;;;;;;4.95;3.10;;;;;;;;;;5090342;28;20256;-65
2023/09/09 10:10:07;;;;;;;3.75;3.45;;;;;;;;;;5090757;28;20291;-66
2023/09/09 10:12:36;;;;;;;4.75;4.22;;;;;;;;;;5086472;28;20746;-66
2023/09/09 10:15:05;;;;;;;4.13;2.97;;;;;;;;;;5087446;28;20193;-66
2023/09/09 10:17:32;;;;;;;5.50;5.05;;;;;;;;;;5089083;28;20225;-67
2023/09/09 10:20:01;;;;;;;4.93;2.38;;;;;;;;;;5083519;28;20296;-64
2023/09/09 10:22:28;;;;;;;8.20;5.95;;;;;;;;;;5086671;28;21098;-64
2023/09/09 10:24:54;;;;;;;5.25;4.85;;;;;;;;;;5085997;28;20238;-65
2023/09/09 10:27:21;;;;;;;2.85;2.65;;;;;;;;;;5088080;28;20297;-64
2023/09/09 10:29:48;;;;;;;6.90;2.75;;;;;;;;;;5086975;28;20212;-63
2023/09/09 10:32:16;;;;;;;2.03;1.80;;;;;;;;;;5092984;28;20239;-65
2023/09/09 10:34:44;;;;;;;3.00;1.75;;;;;;;;;;5082570;28;20240;-65
2023/09/09 10:37:11;;;;;;;2.25;2.05;;;;;;;;;;5071735;28;20306;-65
2023/09/09 10:39:38;;;;;;;2.95;1.80;;;;;;;;;;5084911;28;20197;-63
2023/09/09 10:42:05;;;;;;;2.72;2.50;;;;;;;;;;5090350;28;20206;-64
2023/09/09 10:44:32;;;;;;;2.47;2.20;;;;;;;;;;5092879;28;20204;-66
2023/09/09 10:46:58;;;;;;;2.50;2.40;;;;;;;;;;5092382;28;20265;-66
2023/09/09 10:49:27;;;;;;;3.38;2.70;;;;;;;;;;5088179;28;20283;-64
2023/09/09 10:51:54;;;;;;;1.77;1.67;;;;;;;;;;5092539;28;20197;-66
2023/09/09 10:54:22;;;;;;;2.15;2.00;;;;;;;;;;5092765;28;20193;-67
2023/09/09 10:56:49;;;;;;;2.40;2.30;;;;;;;;;;5095463;28;20277;-65
2023/09/09 10:59:19;;;;;;;1.85;1.75;;;;;;;;;;5091633;28;20216;-65
2023/09/09 11:01:45;;;;;;;5.80;1.77;;;;;;;;;;5089419;28;20237;-65
2023/09/09 11:04:19;;;;;;;3.60;2.20;;;;;;;;;;5089550;28;20206;-66
2023/09/09 11:06:59;;;;;;;1.55;1.45;;;;;;;;;;5091318;28;20214;-65
2023/09/09 11:09:28;;;;;;;6.32;2.10;;;;;;;;;;5096681;28;20303;-63
2023/09/09 11:11:56;;;;;;;1.95;1.85;;;;;;;26.67;nan;95368.25;5091470;28;20198;-64
2023/09/09 11:14:23;;;;;;;2.10;2.00;;;;;;;;;;5090631;28;20193;-65
2023/09/09 11:16:54;;;;;;;1.42;1.33;;;;;;;;;;5093094;28;20298;-64
2023/09/09 11:19:23;;;;;;;2.35;1.92;;;;;;;;;;5101399;28;20292;-64
2023/09/09 11:21:51;;;;;;;1.83;1.73;;;;;;;;;;5102252;28;20239;-65
2023/09/09 11:24:18;;;;;;;7.28;4.97;;;;;;;;;;5103292;28;20208;-64
2023/09/09 11:26:46;;;;;;;2.33;2.17;;;;;;;;;;5104075;28;20639;-64
2023/09/09 11:29:12;;;;;;;1.52;1.38;;;;;;;;;;5103877;28;20251;-65
2023/09/09 11:31:39;;;;;;;2.17;2.08;;;;;;;;;;5105074;28;20193;-64
2023/09/09 11:34:05;;;;;;;6.85;3.83;;;;;;;;;;5103840;28;20609;-65
2023/09/09 11:36:32;;;;;;;4.65;2.53;;;;;;;;;;5104134;28;20270;-65
2023/09/09 11:39:00;;;;;;;1.85;1.60;;;;;;;;;;5103566;28;20529;-66
2023/09/09 11:41:29;;;;;;;3.15;2.28;;;;;;;;;;5104401;28;20224;-65
2023/09/09 11:44:02;;;;;;;2.03;1.92;;;;;;;;;;5104135;28;20197;-64
2023/09/09 11:46:32;;;;;;;2.33;1.50;;;;;;;;;;5104464;28;20201;-63
2023/09/09 11:48:58;;;;;;;3.83;2.72;;;;;;;;;;5101894;28;20281;-64
2023/09/09 11:51:25;;;;;;;3.38;2.50;;;;;;;;;;5104564;28;20633;-65
2023/09/09 11:53:52;;;;;;;3.33;1.95;;;;;;;;;;5103494;28;20257;-65
2023/09/09 11:56:19;;;;;;;2.47;1.75;;;;;;;;;;5100440;28;20231;-65
2023/09/09 11:58:47;;;;;;;1.83;1.73;;;;;;;;;;5101533;28;20232;-67
2023/09/09 12:01:14;;;;;;;2.30;2.10;;;;;;;;;;5104218;28;20679;-65
2023/09/09 12:03:40;;;;;;;2.88;2.35;;;;;;;;;;5103554;28;20232;-66
2023/09/09 12:06:07;;;;;;;5.18;2.10;;;;;;;;;;5102323;28;20204;-64
2023/09/09 12:08:35;;;;;;;2.10;1.92;;;;;;;;;;5101167;28;20237;-65
2023/09/09 12:11:02;;;;;;;2.97;1.98;;;;;;;;;;5101737;28;20231;-65
2023/09/09 12:13:29;;;;;;;3.38;2.10;;;;;;;;;;5097361;28;20228;-65
2023/09/09 12:15:58;;;;;;;1.95;1.50;;;;;;;;;;5092800;28;20477;-65
2023/09/09 12:18:24;;;;;;;3.63;2.60;;;;;;;;;;5089199;28;20225;-64
2023/09/09 12:21:04;;;;;;;2.35;2.10;;;;;;;;;;5090043;28;20258;-63
2023/09/09 12:23:31;;;;;;;3.35;1.88;;;;;;;;;;5090936;28;21964;-64
2023/09/09 12:26:07;;;;;;;3.55;3.35;;;;;;;;;;5093398;27;20232;-64
2023/09/09 12:28:33;;;;;;;5.63;5.10;;;;;;;;;;5093082;28;20257;-64
2023/09/09 12:31:01;;;;;;;5.30;2.35;;;;;;;;;;5093442;28;20734;-65
2023/09/09 12:33:28;;;;;;;4.00;1.67;;;;;;;;;;5092474;28;20225;-64
2023/09/09 12:35:55;;;;;;;2.90;2.67;;;;;;;;;;5097245;28;20199;-66
2023/09/09 12:38:21;;;;;;;1.80;1.70;;;;;;;;;;5097374;27;20241;-64
2023/09/09 12:40:49;;;;;;;2.30;2.05;;;;;;;;;;5093772;28;20299;-64
2023/09/09 12:43:16;;;;;;;2.88;2.08;;;;;;;;;;5092264;28;20197;-65
2023/09/09 12:45:46;;;;;;;2.10;1.90;;;;;;;;;;5093636;28;20234;-65
2023/09/09 12:48:14;;;;;;;3.80;1.88;;;;;;;;;;5091960;28;20723;-64
2023/09/09 12:50:41;;;;;;;3.97;1.60;;;;;;;;;;5094427;28;20201;-64
2023/09/09 12:53:07;;;;;;;2.72;1.58;;;;;;;;;;5094004;28;20762;-66
2023/09/09 12:55:34;;;;;;;2.13;1.90;;;;;;;;;;5091077;28;20205;-65
2023/09/09 12:58:01;;;;;;;2.33;2.13;;;;;;;;;;5095011;28;20278;-65
2023/09/09 13:00:28;;;;;;;2.72;1.98;;;;;;;;;;5094263;28;20205;-64
2023/09/09 13:02:54;;;;;;;2.30;1.83;;;;;;;;;;5092558;28;20213;-65
2023/09/09 13:05:22;;;;;;;2.60;2.15;;;;;;;;;;5095208;28;20237;-65
2023/09/09 13:07:49;;;;;;;5.72;2.30;;;;;;;;;;5092719;28;20255;-63
2023/09/09 13:10:16;;;;;;;4.18;2.13;;;;;;;;;;5092487;28;21049;-65
2023/09/09 13:12:42;;;;;;;1.45;1.40;;;;;;;;;;5095858;28;20197;-63
2023/09/09 13:15:09;;;;;;;2.88;2.25;;;;;;;;;;5097018;28;20282;-64
2023/09/09 13:17:36;;;;;;;2.35;2.17;;;;;;;;;;5098392;28;20791;-65
2023/09/09 13:20:02;;;;;;;2.00;1.90;;;;;;;;;;5091348;28;20707;-63
2023/09/09 13:22:30;;;;;;;2.20;2.00;;;;;;;;;;5091748;28;20197;-65
2023/09/09 13:24:57;;;;;;;2.45;2.25;;;;;;;;;;5092181;28;20197;-66
2023/09/09 13:27:23;;;;;;;4.13;1.55;;;;;;;;;;5101251;28;20847;-65
2023/09/09 13:29:50;;;;;;;2.13;1.92;;;;;;;;;;5097916;28;20215;-65
2023/09/09 13:32:16;;;;;;;2.40;1.75;;;;;;;;;;5090123;28;20244;-66
2023/09/09 13:34:43;;;;;;;1.98;1.88;;;;;;;;;;5092986;28;20286;-64
2023/09/09 13:37:09;;;;;;;2.05;1.80;;;;;;;;;;5091682;28;20593;-65
2023/09/09 13:39:37;;;;;;;1.85;1.40;;;;;;;;;;5091041;27;20255;-65
2023/09/09 13:42:03;;;;;;;7.63;1.83;;;;;;;;;;5092343;28;20232;-66
2023/09/09 13:44:33;;;;;;;3.40;2.72;;;;;;;;;;5094458;28;20286;-66
2023/09/09 13:46:59;;;;;;;3.83;2.05;;;;;;;;;;5093262;28;20258;-65
2023/09/09 13:49:26;;;;;;;1.98;1.88;;;;;;;;;;5092485;28;20201;-65
2023/09/09 13:51:52;;;;;;;7.57;1.92;;;;;;;;;;5095554;28;20206;-64
2023/09/09 13:54:19;;;;;;;2.47;1.75;;;;;;;;;;5094812;28;20268;-67
2023/09/09 13:56:47;;;;;;;1.88;1.77;;;;;;;;;;5095336;28;20200;-64
2023/09/09 13:59:13;;;;;;;3.60;2.97;;;;;;;;;;5092129;28;20282;-65
2023/09/09 14:01:39;;;;;;;3.10;1.88;;;;;;;;;;5097371;28;20208;-65
2023/09/09 14:04:06;;;;;;;2.40;1.95;;;;;;;;;;5090020;28;20201;-64
2023/09/09 14:06:32;;;;;;;2.20;1.98;;;;;;;;;;5093820;28;20206;-65
2023/09/09 14:08:59;;;;;;;2.17;1.65;;;;;;;;;;5094450;28;20282;-65
2023/09/09 14:11:25;;;;;;;6.00;1.98;;;;;;;;;;5091295;27;20230;-64
2023/09/09 14:13:53;;;;;;;7.15;3.30;;;;;;;;;;5090677;28;20679;-65
2023/09/09 14:16:19;;;;;;;3.97;3.58;;;;;;;;;;5094476;28;21952;-65
2023/09/09 14:18:46;;;;;;;2.47;2.28;;;;;;;;;;5094617;27;20276;-65
2023/09/09 14:21:12;;;;;;;3.28;3.05;;;;;;;;;;5088840;28;20233;-65
2023/09/09 14:23:40;;;;;;;6.97;3.10;;;;;;;;;;5087349;28;20230;-64
2023/09/09 14:26:07;;;;;;;4.32;2.03;;;;;;;;;;5093598;28;20201;-64
2023/09/09 14:28:33;;;;;;;2.65;2.55;;;;;;;;;;5090794;28;20255;-65